Array
(
    [0] => p
    [1] => METAR
)
বাংলা English

    **Phone. +880 29135742, 912383

METAR

VGHS 250200Z 12005KT 2500 BR NSC 25/20 Q1012 BECMG S/VIS 3000M=